createdAt,value
2017-07-21T00:00:55.547Z,99.99
2017-07-21T00:01:55.534Z,99.99
2017-07-21T00:02:55.849Z,99.99
2017-07-21T00:03:55.834Z,99.99
2017-07-21T00:04:55.830Z,99.99
2017-07-21T00:05:55.499Z,99.99
2017-07-21T00:06:55.489Z,99.99
2017-07-21T00:07:55.789Z,99.99
2017-07-21T00:08:55.783Z,99.99
2017-07-21T00:09:55.772Z,99.99
2017-07-21T00:10:55.762Z,99.99
2017-07-21T00:11:55.758Z,99.99
2017-07-21T00:12:55.744Z,99.99
2017-07-21T00:13:55.419Z,99.99
2017-07-21T00:14:55.725Z,99.99
2017-07-21T00:15:55.767Z,99.99
2017-07-21T00:16:55.706Z,99.99
2017-07-21T00:17:55.702Z,99.99
2017-07-21T00:18:55.683Z,99.99
2017-07-21T00:19:55.677Z,99.99
2017-07-21T00:20:55.355Z,99.99
2017-07-21T00:21:55.349Z,99.99
2017-07-21T00:22:55.648Z,99.99
2017-07-21T00:23:55.638Z,99.99
2017-07-21T00:24:55.319Z,99.99
2017-07-21T00:25:55.625Z,99.99
2017-07-21T00:26:55.305Z,99.99
2017-07-21T00:27:55.606Z,99.99
2017-07-21T00:28:55.287Z,99.99
2017-07-21T00:29:55.579Z,99.99
2017-07-21T00:30:55.571Z,99.99
2017-07-21T00:31:55.567Z,99.99
2017-07-21T00:32:55.555Z,99.99
2017-07-21T00:33:55.547Z,99.99
2017-07-21T00:34:55.530Z,99.99
2017-07-21T00:35:55.524Z,99.99
2017-07-21T00:36:55.510Z,99.99
2017-07-21T00:37:55.506Z,99.99
2017-07-21T00:38:55.184Z,99.99
2017-07-21T00:39:55.489Z,99.99
2017-07-21T00:40:55.478Z,99.99
2017-07-21T00:41:55.154Z,99.99
2017-07-21T00:42:55.459Z,99.99
2017-07-21T00:43:55.451Z,99.99
2017-07-21T00:44:55.123Z,99.99
2017-07-21T00:45:55.426Z,99.99
2017-07-21T00:46:55.416Z,99.99
2017-07-21T00:47:55.408Z,99.99
2017-07-21T00:48:55.398Z,99.99
2017-07-21T00:49:55.077Z,99.99
2017-07-21T00:50:55.382Z,99.99
2017-07-21T00:51:55.366Z,99.99
2017-07-21T00:52:55.044Z,99.99
2017-07-21T00:53:55.346Z,99.99
2017-07-21T00:54:55.338Z,99.99
2017-07-21T00:55:55.015Z,99.99
2017-07-21T00:56:55.313Z,99.99
2017-07-21T00:57:54.997Z,99.99
2017-07-21T00:58:55.300Z,99.99
2017-07-21T00:59:55.286Z,99.99
2017-07-21T01:00:55.278Z,99.99
2017-07-21T01:01:55.266Z,99.99
2017-07-21T01:02:55.257Z,99.99
2017-07-21T01:03:55.246Z,99.99
2017-07-21T01:04:54.926Z,99.99
2017-07-21T01:05:55.429Z,99.99
2017-07-21T01:06:55.215Z,99.99
2017-07-21T01:07:54.896Z,99.99
2017-07-21T01:08:55.198Z,99.99
2017-07-21T01:09:55.192Z,99.99
2017-07-21T01:10:55.174Z,99.99
2017-07-21T01:11:55.165Z,99.99
2017-07-21T01:12:55.155Z,99.99
2017-07-21T01:13:54.832Z,99.99
2017-07-21T01:14:54.821Z,99.99
2017-07-21T01:15:55.128Z,99.99
2017-07-21T01:16:55.112Z,99.99
2017-07-21T01:17:54.792Z,99.99
2017-07-21T01:18:55.099Z,99.99
2017-07-21T01:19:54.774Z,99.99
2017-07-21T01:20:54.760Z,99.99
2017-07-21T01:21:55.061Z,99.99
2017-07-21T01:22:55.054Z,99.99
2017-07-21T01:23:54.728Z,99.99
2017-07-21T01:24:54.720Z,99.99
2017-07-21T01:25:55.025Z,99.99
2017-07-21T01:26:54.698Z,99.99
2017-07-21T01:27:55.008Z,99.99
2017-07-21T01:28:54.990Z,99.99
2017-07-21T01:29:54.670Z,99.99
2017-07-21T01:30:54.973Z,99.99
2017-07-21T01:31:54.962Z,99.99
2017-07-21T01:32:54.952Z,99.99
2017-07-21T01:33:54.939Z,99.99
2017-07-21T01:34:54.934Z,99.99
2017-07-21T01:35:54.917Z,99.99
2017-07-21T01:36:54.907Z,99.99
2017-07-21T01:37:54.898Z,99.99
2017-07-21T01:38:54.893Z,99.99
2017-07-21T01:39:54.878Z,99.99
2017-07-21T01:40:54.872Z,99.99
2017-07-21T01:41:54.858Z,99.99
2017-07-21T01:42:54.534Z,99.99
2017-07-21T01:43:54.836Z,99.99
2017-07-21T01:44:54.827Z,99.99
2017-07-21T01:45:54.505Z,99.99
2017-07-21T01:46:54.547Z,99.99
2017-07-21T01:47:54.798Z,99.99
2017-07-21T01:48:54.471Z,99.99
2017-07-21T01:49:54.466Z,99.99
2017-07-21T01:50:54.770Z,99.99
2017-07-21T01:51:54.442Z,99.99
2017-07-21T01:52:54.431Z,99.99
2017-07-21T01:53:54.733Z,99.99
2017-07-21T01:54:54.726Z,99.99
2017-07-21T01:55:54.431Z,99.99
2017-07-21T01:56:54.393Z,99.99
2017-07-21T01:57:54.694Z,99.99
2017-07-21T01:58:54.695Z,99.99
2017-07-21T01:59:54.357Z,99.99
2017-07-21T02:00:54.355Z,99.99
2017-07-21T02:01:54.649Z,99.99
2017-07-21T02:02:54.639Z,99.99
2017-07-21T02:03:54.413Z,99.99
2017-07-21T02:04:54.621Z,99.99
2017-07-21T02:05:54.631Z,99.99
2017-07-21T02:06:54.599Z,99.99
2017-07-21T02:07:54.590Z,99.99
2017-07-21T02:08:54.262Z,99.99
2017-07-21T02:09:54.569Z,99.99
2017-07-21T02:10:54.554Z,99.99
2017-07-21T02:11:54.234Z,99.99
2017-07-21T02:12:54.532Z,99.99
2017-07-21T02:13:54.521Z,99.99
2017-07-21T02:14:54.510Z,99.99
2017-07-21T02:15:54.501Z,99.99
2017-07-21T02:16:54.182Z,99.99
2017-07-21T02:17:54.483Z,99.99
2017-07-21T02:18:54.158Z,99.99
2017-07-21T02:19:54.457Z,99.99
2017-07-21T02:20:54.135Z,99.99
2017-07-21T02:21:54.433Z,99.99
2017-07-21T02:22:54.111Z,99.99
2017-07-21T02:23:54.101Z,99.99
2017-07-21T02:24:54.092Z,99.99
2017-07-21T02:25:54.392Z,99.99
2017-07-21T02:26:54.384Z,99.99
2017-07-21T02:27:54.369Z,99.99
2017-07-21T02:28:54.360Z,99.99
2017-07-21T02:29:54.037Z,99.99
2017-07-21T02:30:54.343Z,99.99
2017-07-21T02:31:54.329Z,99.99
2017-07-21T02:32:54.322Z,99.99
2017-07-21T02:33:54.310Z,99.99
2017-07-21T02:34:54.290Z,99.99
2017-07-21T02:35:53.977Z,99.99
2017-07-21T02:36:53.958Z,99.99
2017-07-21T02:37:53.948Z,99.99
2017-07-21T02:38:53.935Z,99.99
2017-07-21T02:39:54.240Z,99.99
2017-07-21T02:40:53.914Z,99.99
2017-07-21T02:41:54.216Z,99.99
2017-07-21T02:42:54.203Z,99.99
2017-07-21T02:43:54.190Z,99.99
2017-07-21T02:44:54.182Z,99.99
2017-07-21T02:45:53.863Z,99.99
2017-07-21T02:46:54.159Z,99.99
2017-07-21T02:47:54.148Z,99.99
2017-07-21T02:48:54.136Z,99.99
2017-07-21T02:49:53.819Z,99.99
2017-07-21T02:50:54.112Z,99.99
2017-07-21T02:51:54.103Z,99.99
2017-07-21T02:52:54.092Z,99.99
2017-07-21T02:53:53.767Z,99.99
2017-07-21T02:54:53.754Z,99.99
2017-07-21T02:55:54.063Z,99.99
2017-07-21T02:56:53.734Z,99.99
2017-07-21T02:57:53.725Z,99.99
2017-07-21T02:58:54.024Z,99.99
2017-07-21T02:59:54.011Z,99.99
2017-07-21T03:00:54.001Z,99.99
2017-07-21T03:01:53.677Z,99.99
2017-07-21T03:02:53.663Z,99.99
2017-07-21T03:03:53.993Z,99.99
2017-07-21T03:04:53.953Z,99.99
2017-07-21T03:05:54.146Z,99.99
2017-07-21T03:06:53.941Z,99.99
2017-07-21T03:07:53.923Z,99.99
2017-07-21T03:08:53.912Z,99.99
2017-07-21T03:09:53.903Z,99.99
2017-07-21T03:10:53.575Z,99.99
2017-07-21T03:11:53.561Z,99.99
2017-07-21T03:12:53.863Z,99.99
2017-07-21T03:13:53.540Z,99.99
2017-07-21T03:14:53.528Z,99.99
2017-07-21T03:15:53.836Z,99.99
2017-07-21T03:16:53.818Z,99.99
2017-07-21T03:17:53.521Z,99.99
2017-07-21T03:18:53.481Z,99.99
2017-07-21T03:19:53.780Z,99.99
2017-07-21T03:20:53.461Z,99.99
2017-07-21T03:21:53.452Z,99.99
2017-07-21T03:22:53.750Z,99.99
2017-07-21T03:23:53.423Z,99.99
2017-07-21T03:24:53.412Z,99.99
2017-07-21T03:25:53.710Z,99.99
2017-07-21T03:26:53.700Z,99.99
2017-07-21T03:27:53.691Z,99.99
2017-07-21T03:28:53.369Z,99.99
2017-07-21T03:29:53.664Z,99.99
2017-07-21T03:30:53.658Z,99.99
2017-07-21T03:31:53.644Z,99.99
2017-07-21T03:32:53.318Z,99.99
2017-07-21T03:33:53.648Z,99.99
2017-07-21T03:34:53.605Z,99.99
2017-07-21T03:35:53.285Z,99.99
2017-07-21T03:36:53.272Z,99.99
2017-07-21T03:37:53.572Z,99.99
2017-07-21T03:38:53.561Z,99.99
2017-07-21T03:39:53.546Z,99.99
2017-07-21T03:40:53.535Z,99.99
2017-07-21T03:41:53.526Z,99.99
2017-07-21T03:42:53.537Z,99.99
2017-07-21T03:43:53.501Z,99.99
2017-07-21T03:44:53.190Z,99.99
2017-07-21T03:45:53.479Z,99.99
2017-07-21T03:46:53.154Z,99.99
2017-07-21T03:47:53.453Z,99.99
2017-07-21T03:48:53.445Z,99.99
2017-07-21T03:49:53.438Z,99.99
2017-07-21T03:50:53.419Z,99.99
2017-07-21T03:51:53.094Z,99.99
2017-07-21T03:52:53.393Z,99.99
2017-07-21T03:53:53.390Z,99.99
2017-07-21T03:54:53.060Z,99.99
2017-07-21T03:55:53.046Z,99.99
2017-07-21T03:56:53.349Z,99.99
2017-07-21T03:57:53.020Z,99.99
2017-07-21T03:58:53.324Z,99.99
2017-07-21T03:59:53.310Z,99.99
2017-07-21T04:00:52.987Z,99.99
2017-07-21T04:01:53.287Z,99.99
2017-07-21T04:02:53.273Z,99.99
2017-07-21T04:03:53.265Z,99.99
2017-07-21T04:04:53.249Z,99.99
2017-07-21T04:05:53.238Z,99.99
2017-07-21T04:06:53.229Z,99.99
2017-07-21T04:07:52.904Z,99.99
2017-07-21T04:08:52.889Z,99.99
2017-07-21T04:09:53.191Z,99.99
2017-07-21T04:10:53.184Z,99.99
2017-07-21T04:11:53.165Z,99.99
2017-07-21T04:12:53.151Z,99.99
2017-07-21T04:13:53.141Z,99.99
2017-07-21T04:14:52.821Z,99.99
2017-07-21T04:15:53.121Z,99.99
2017-07-21T04:16:53.107Z,99.99
2017-07-21T04:17:52.783Z,99.99
2017-07-21T04:18:53.084Z,99.99
2017-07-21T04:19:53.071Z,99.99
2017-07-21T04:20:53.057Z,99.99
2017-07-21T04:21:52.737Z,99.99
2017-07-21T04:22:53.042Z,99.99
2017-07-21T04:23:53.026Z,99.99
2017-07-21T04:24:53.040Z,99.99
2017-07-21T04:25:52.998Z,99.99
2017-07-21T04:26:52.990Z,99.99
2017-07-21T04:27:52.673Z,99.99
2017-07-21T04:28:52.970Z,99.99
2017-07-21T04:29:52.952Z,99.99
2017-07-21T04:30:52.630Z,99.99
2017-07-21T04:31:52.925Z,99.99
2017-07-21T04:32:52.602Z,99.99
2017-07-21T04:33:52.594Z,99.99
2017-07-21T04:34:52.890Z,99.99
2017-07-21T04:35:52.879Z,99.99
2017-07-21T04:36:52.556Z,99.99
2017-07-21T04:37:52.857Z,99.99
2017-07-21T04:38:52.846Z,99.99
2017-07-21T04:39:52.835Z,99.99
2017-07-21T04:40:52.822Z,99.99
2017-07-21T04:41:52.805Z,99.99
2017-07-21T04:42:52.798Z,99.99
2017-07-21T04:43:52.785Z,99.99
2017-07-21T04:44:52.773Z,99.99
2017-07-21T04:45:52.762Z,99.99
2017-07-21T04:46:52.435Z,99.99
2017-07-21T04:47:52.434Z,99.99
2017-07-21T04:48:52.726Z,99.99
2017-07-21T04:49:52.715Z,99.99
2017-07-21T04:50:52.702Z,99.99
2017-07-21T04:51:52.690Z,99.99
2017-07-21T04:52:52.678Z,99.99
2017-07-21T04:53:52.664Z,99.99
2017-07-21T04:54:52.657Z,99.99
2017-07-21T04:55:52.638Z,99.99
2017-07-21T04:56:52.318Z,99.99
2017-07-21T04:57:52.615Z,99.99
2017-07-21T04:58:52.602Z,99.99
2017-07-21T04:59:52.287Z,99.99
2017-07-21T05:00:52.276Z,99.99
2017-07-21T05:01:52.571Z,99.99
2017-07-21T05:02:52.244Z,99.99
2017-07-21T05:03:52.549Z,99.99
2017-07-21T05:04:52.533Z,99.99
2017-07-21T05:05:52.414Z,99.99
2017-07-21T05:06:52.514Z,99.99
2017-07-21T05:07:52.498Z,99.99
2017-07-21T05:08:52.490Z,99.99
2017-07-21T05:09:52.475Z,99.99
2017-07-21T05:10:52.465Z,99.99
2017-07-21T05:11:52.146Z,99.99
2017-07-21T05:12:52.442Z,99.99
2017-07-21T05:13:52.116Z,99.99
2017-07-21T05:14:52.105Z,99.99
2017-07-21T05:15:52.096Z,99.99
2017-07-21T05:16:52.081Z,99.99
2017-07-21T05:17:52.385Z,99.99
2017-07-21T05:18:52.372Z,99.99
2017-07-21T05:19:52.047Z,99.99
2017-07-21T05:20:52.345Z,99.99
2017-07-21T05:21:52.332Z,99.99
2017-07-21T05:22:52.011Z,99.99
2017-07-21T05:23:51.999Z,99.99
2017-07-21T05:24:51.993Z,99.99
2017-07-21T05:25:52.286Z,99.99
2017-07-21T05:26:51.965Z,99.99
2017-07-21T05:27:51.953Z,99.99
2017-07-21T05:28:51.944Z,99.99
2017-07-21T05:29:52.246Z,99.99
2017-07-21T05:30:51.917Z,99.99
2017-07-21T05:31:52.216Z,99.99
2017-07-21T05:32:52.214Z,99.99
2017-07-21T05:33:52.195Z,99.99
2017-07-21T05:34:51.874Z,99.99
2017-07-21T05:35:52.182Z,99.99
2017-07-21T05:36:52.168Z,99.99
2017-07-21T05:37:52.152Z,99.99
2017-07-21T05:38:52.135Z,99.99
2017-07-21T05:39:52.126Z,99.99
2017-07-21T05:40:52.164Z,99.99
2017-07-21T05:41:51.792Z,99.99
2017-07-21T05:42:52.090Z,99.99
2017-07-21T05:43:52.091Z,99.99
2017-07-21T05:44:51.757Z,99.99
2017-07-21T05:45:51.751Z,99.99
2017-07-21T05:46:51.774Z,99.99
2017-07-21T05:47:52.034Z,99.99
2017-07-21T05:48:52.024Z,99.99
2017-07-21T05:49:52.012Z,99.99
2017-07-21T05:50:52.003Z,99.99
2017-07-21T05:51:51.994Z,99.99
2017-07-21T05:52:51.667Z,99.99
2017-07-21T05:53:51.655Z,99.99
2017-07-21T05:54:51.954Z,99.99
2017-07-21T05:55:51.687Z,99.99
2017-07-21T05:56:51.621Z,99.99
2017-07-21T05:57:51.923Z,99.99
2017-07-21T05:58:51.913Z,99.99
2017-07-21T05:59:51.587Z,99.99
2017-07-21T06:00:51.577Z,99.99
2017-07-21T06:01:51.565Z,99.99
2017-07-21T06:02:51.865Z,99.99
2017-07-21T06:03:51.540Z,99.99
2017-07-21T06:04:51.849Z,99.99
2017-07-21T06:05:51.831Z,99.99
2017-07-21T06:06:51.820Z,99.99
2017-07-21T06:07:51.544Z,99.99
2017-07-21T06:08:51.797Z,99.99
2017-07-21T06:09:51.784Z,99.99
2017-07-21T06:10:51.474Z,99.99
2017-07-21T06:11:51.762Z,99.99
2017-07-21T06:12:51.752Z,99.99
2017-07-21T06:13:51.429Z,99.99
2017-07-21T06:14:51.414Z,99.99
2017-07-21T06:15:51.407Z,99.99
2017-07-21T06:16:51.704Z,99.99
2017-07-21T06:17:51.695Z,99.99
2017-07-21T06:18:51.686Z,99.99
2017-07-21T06:19:51.671Z,99.99
2017-07-21T06:20:51.658Z,99.99
2017-07-21T06:21:51.370Z,99.99
2017-07-21T06:22:51.329Z,99.99
2017-07-21T06:23:51.313Z,99.99
2017-07-21T06:24:51.307Z,99.99
2017-07-21T06:25:51.611Z,99.99
2017-07-21T06:26:51.596Z,99.99
2017-07-21T06:27:51.580Z,99.99
2017-07-21T06:28:51.573Z,99.99
2017-07-21T06:29:51.562Z,99.99
2017-07-21T06:30:51.245Z,99.99
2017-07-21T06:31:51.227Z,99.99
2017-07-21T06:32:51.527Z,99.99
2017-07-21T06:33:51.514Z,99.99
2017-07-21T06:34:51.506Z,99.99
2017-07-21T06:35:51.493Z,99.99
2017-07-21T06:36:51.205Z,99.99
2017-07-21T06:37:51.161Z,99.99
2017-07-21T06:38:51.458Z,99.99
2017-07-21T06:39:51.177Z,99.99
2017-07-21T06:40:51.440Z,99.99
2017-07-21T06:41:51.430Z,99.99
2017-07-21T06:42:51.106Z,99.99
2017-07-21T06:43:51.132Z,99.99
2017-07-21T06:44:51.396Z,99.99
2017-07-21T06:45:51.076Z,99.99
2017-07-21T06:46:51.066Z,99.99
2017-07-21T06:47:51.377Z,99.99
2017-07-21T06:48:51.043Z,99.99
2017-07-21T06:49:51.339Z,99.99
2017-07-21T06:50:51.019Z,99.99
2017-07-21T06:51:51.008Z,99.99
2017-07-21T06:52:51.311Z,99.99
2017-07-21T06:53:50.989Z,99.99
2017-07-21T06:54:51.027Z,99.99
2017-07-21T06:55:51.285Z,99.99
2017-07-21T06:56:50.957Z,99.99
2017-07-21T06:57:51.258Z,99.99
2017-07-21T06:58:50.936Z,99.99
2017-07-21T06:59:50.923Z,99.99
2017-07-21T07:00:51.222Z,99.99
2017-07-21T07:01:51.214Z,99.99
2017-07-21T07:02:51.200Z,99.99
2017-07-21T07:03:51.194Z,99.99
2017-07-21T07:04:50.870Z,99.99
2017-07-21T07:05:51.375Z,99.99
2017-07-21T07:06:50.848Z,99.99
2017-07-21T07:07:51.152Z,99.99
2017-07-21T07:08:50.827Z,99.99
2017-07-21T07:09:50.819Z,99.99
2017-07-21T07:10:50.806Z,99.99
2017-07-21T07:11:51.113Z,99.99
2017-07-21T07:12:50.785Z,99.99
2017-07-21T07:13:50.777Z,99.99
2017-07-21T07:14:51.078Z,99.99
2017-07-21T07:15:50.756Z,99.99
2017-07-21T07:16:51.057Z,99.99
2017-07-21T07:17:51.053Z,99.99
2017-07-21T07:18:51.035Z,99.99
2017-07-21T07:19:50.716Z,99.99
2017-07-21T07:20:51.021Z,99.99
2017-07-21T07:21:51.008Z,99.99
2017-07-21T07:22:50.997Z,99.99
2017-07-21T07:23:50.998Z,99.99
2017-07-21T07:24:50.984Z,99.99
2017-07-21T07:25:50.974Z,99.99
2017-07-21T07:26:50.958Z,99.99
2017-07-21T07:27:50.956Z,99.99
2017-07-21T07:28:50.624Z,99.99
2017-07-21T07:29:50.925Z,99.99
2017-07-21T07:30:50.913Z,99.99
2017-07-21T07:31:50.910Z,99.99
2017-07-21T07:32:50.896Z,99.99
2017-07-21T07:33:50.901Z,99.99
2017-07-21T07:34:50.884Z,99.99
2017-07-21T07:35:50.550Z,99.99
2017-07-21T07:36:50.862Z,99.99
2017-07-21T07:37:50.536Z,99.99
2017-07-21T07:38:50.520Z,99.99
2017-07-21T07:39:50.826Z,96.46
2017-07-21T07:40:50.505Z,88.6
2017-07-21T07:41:50.813Z,85.22
2017-07-21T07:42:50.807Z,78.87
2017-07-21T07:43:50.797Z,78.13
2017-07-21T07:44:50.794Z,74.24
2017-07-21T07:45:50.474Z,70.79
2017-07-21T07:46:50.786Z,68.05
2017-07-21T07:47:50.777Z,68.63
2017-07-21T07:48:50.461Z,68.08
2017-07-21T07:49:50.769Z,65.3
2017-07-21T07:50:50.447Z,65.47
2017-07-21T07:51:50.764Z,63.23
2017-07-21T07:52:50.446Z,61.51
2017-07-21T07:53:50.746Z,57.82
2017-07-21T07:54:50.431Z,61.19
2017-07-21T07:55:50.742Z,60.31
2017-07-21T07:56:50.735Z,59.57
2017-07-21T07:57:50.426Z,60.64
2017-07-21T07:58:50.732Z,59.86
2017-07-21T07:59:50.419Z,58.72
2017-07-21T08:00:50.728Z,57.59
2017-07-21T08:02:50.718Z,57.75
2017-07-21T08:03:50.719Z,57.85
2017-07-21T08:04:50.718Z,57.26
2017-07-21T08:05:50.712Z,58.23
2017-07-21T08:06:50.395Z,58.85
2017-07-21T08:07:50.764Z,58.26
2017-07-21T08:08:50.705Z,57.32
2017-07-21T08:09:50.389Z,57.09
2017-07-21T08:10:50.710Z,54.65
2017-07-21T08:11:50.385Z,56.67
2017-07-21T08:12:50.696Z,54.65
2017-07-21T08:13:50.384Z,53.97
2017-07-21T08:14:50.382Z,52.34
2017-07-21T08:15:50.697Z,53.99
2017-07-21T08:16:50.699Z,52.31
2017-07-21T08:17:50.696Z,51.36
2017-07-21T08:18:50.378Z,51.63
2017-07-21T08:19:50.376Z,52.7
2017-07-21T08:20:50.698Z,54.06
2017-07-21T08:21:50.686Z,53.48
2017-07-21T08:22:50.376Z,52.7
2017-07-21T08:23:50.373Z,53.5
2017-07-21T08:24:50.687Z,51.85
2017-07-21T08:25:50.684Z,53.28
2017-07-21T08:26:50.374Z,52.44
2017-07-21T08:27:50.687Z,51.17
2017-07-21T08:28:50.374Z,51.07
2017-07-21T08:29:50.689Z,51.65
2017-07-21T08:30:50.688Z,49.95
2017-07-21T08:31:50.369Z,50.12
2017-07-21T08:32:50.685Z,48.97
2017-07-21T08:33:50.687Z,49.46
2017-07-21T08:34:50.712Z,48.39
2017-07-21T08:35:50.689Z,48.58
2017-07-21T08:36:50.687Z,48.68
2017-07-21T08:37:50.690Z,47.22
2017-07-21T08:38:50.689Z,48.8
2017-07-21T08:39:50.686Z,47.83
2017-07-21T08:40:50.689Z,46.85
2017-07-21T08:41:50.381Z,47.22
2017-07-21T08:42:50.375Z,47.9
2017-07-21T08:43:50.691Z,46.14
2017-07-21T08:44:50.695Z,48.49
2017-07-21T08:45:50.696Z,47.41
2017-07-21T08:46:50.690Z,46.66
2017-07-21T08:47:50.696Z,47.14
2017-07-21T08:48:50.409Z,48.19
2017-07-21T08:49:50.700Z,48
2017-07-21T08:50:50.699Z,46.63
2017-07-21T08:51:50.702Z,48.17
2017-07-21T08:52:50.701Z,48.66
2017-07-21T08:53:50.387Z,48.63
2017-07-21T08:54:50.386Z,49.78
2017-07-21T08:55:50.384Z,51.31
2017-07-21T08:56:50.396Z,52.67
2017-07-21T08:57:50.698Z,53.72
2017-07-21T08:58:50.385Z,53.33
2017-07-21T08:59:50.700Z,51.8
2017-07-21T09:00:50.699Z,51.77
2017-07-21T09:01:50.694Z,50.97
2017-07-21T09:02:50.699Z,53.25
2017-07-21T09:03:50.690Z,53.42
2017-07-21T09:04:50.688Z,54.66
2017-07-21T09:05:50.575Z,53.49
2017-07-21T09:06:50.369Z,55.38
2017-07-21T09:07:50.680Z,57.48
2017-07-21T09:08:50.681Z,57.75
2017-07-21T09:09:50.674Z,58.59
2017-07-21T09:10:50.361Z,60.3
2017-07-21T09:11:50.355Z,60.95
2017-07-21T09:12:50.353Z,62.3
2017-07-21T09:13:50.348Z,60.44
2017-07-21T09:14:50.657Z,62.63
2017-07-21T09:15:50.344Z,63.56
2017-07-21T09:16:50.335Z,63.28
2017-07-21T09:17:50.332Z,64.24
2017-07-21T09:18:50.641Z,63.56
2017-07-21T09:19:50.325Z,66.05
2017-07-21T09:20:50.633Z,64.79
2017-07-21T09:21:50.629Z,63.43
2017-07-21T09:22:50.309Z,61.99
2017-07-21T09:23:50.622Z,61.7
2017-07-21T09:24:50.299Z,63.34
2017-07-21T09:25:50.296Z,64.28
2017-07-21T09:26:50.605Z,65.63
2017-07-21T09:27:50.603Z,64.76
2017-07-21T09:28:50.603Z,64.92
2017-07-21T09:29:50.601Z,65.69
2017-07-21T09:30:50.583Z,66.08
2017-07-21T09:31:50.578Z,67.07
2017-07-21T09:32:50.573Z,66.4
2017-07-21T09:33:50.575Z,65.43
2017-07-21T09:34:50.567Z,67.07
2017-07-21T09:35:50.248Z,69.97
2017-07-21T09:36:50.554Z,69.49
2017-07-21T09:37:50.547Z,67.85
2017-07-21T09:38:50.544Z,67.46
2017-07-21T09:39:50.224Z,66.59
2017-07-21T09:40:50.533Z,65.56
2017-07-21T09:41:50.216Z,65.95
2017-07-21T09:42:50.520Z,65.37
2017-07-21T09:43:50.518Z,66.24
2017-07-21T09:44:50.512Z,64.98
2017-07-21T09:45:50.515Z,64.79
2017-07-21T09:46:50.189Z,65.37
2017-07-21T09:47:50.494Z,63.82
2017-07-21T09:48:50.494Z,65.53
2017-07-21T09:49:50.481Z,65.82
2017-07-21T09:50:50.165Z,65.75
2017-07-21T09:51:50.473Z,66.53
2017-07-21T09:52:50.462Z,66.3
2017-07-21T09:53:50.147Z,66.59
2017-07-21T09:54:50.143Z,65.43
2017-07-21T09:55:50.448Z,66.4
2017-07-21T09:56:50.129Z,66.78
2017-07-21T09:57:50.128Z,69.1
2017-07-21T09:58:50.438Z,65.82
2017-07-21T09:59:50.422Z,68.13
2017-07-21T10:00:50.422Z,67.94
2017-07-21T10:01:50.411Z,69.26
2017-07-21T10:02:50.124Z,68.87
2017-07-21T10:03:50.401Z,68.43
2017-07-21T10:04:50.086Z,66.49
2017-07-21T10:05:50.078Z,67.94
2017-07-21T10:06:50.068Z,66.01
2017-07-21T10:07:50.578Z,66.59
2017-07-21T10:08:50.370Z,67.43
2017-07-21T10:09:50.366Z,69.87
2017-07-21T10:10:50.363Z,67.36
2017-07-21T10:11:50.040Z,68.13
2017-07-21T10:12:50.349Z,69
2017-07-21T10:13:50.341Z,69
2017-07-21T10:14:50.022Z,69.29
2017-07-21T10:15:50.325Z,67.46
2017-07-21T10:16:50.012Z,67.94
2017-07-21T10:17:50.318Z,67.36
2017-07-21T10:18:50.310Z,67.85
2017-07-21T10:19:50.308Z,68.94
2017-07-21T10:20:49.989Z,68.26
2017-07-21T10:21:49.983Z,63.95
2017-07-21T10:22:50.293Z,64.56
2017-07-21T10:23:50.292Z,63.34
2017-07-21T10:24:50.304Z,63.85
2017-07-21T10:25:50.278Z,62.59
2017-07-21T10:26:49.960Z,60.57
2017-07-21T10:27:50.271Z,61.11
2017-07-21T10:28:50.268Z,60.82
2017-07-21T10:29:49.950Z,64.5
2017-07-21T10:30:49.945Z,63.37
2017-07-21T10:31:50.256Z,64.92
2017-07-21T10:32:50.253Z,60.11
2017-07-21T10:33:50.246Z,58.33
2017-07-21T10:34:49.935Z,58.26
2017-07-21T10:35:49.934Z,58.58
2017-07-21T10:36:50.247Z,62.59
2017-07-21T10:37:49.928Z,62.45
2017-07-21T10:38:50.241Z,58.5
2017-07-21T10:39:50.243Z,54.64
2017-07-21T10:40:49.933Z,53.4
2017-07-21T10:41:50.242Z,52.14
2017-07-21T10:42:50.245Z,51.55
2017-07-21T10:43:50.246Z,50.87
2017-07-21T10:44:49.938Z,52.14
2017-07-21T10:45:49.936Z,51.39
2017-07-21T10:46:50.252Z,50.21
2017-07-21T10:47:49.939Z,51.09
2017-07-21T10:48:50.250Z,51.87
2017-07-21T10:49:49.943Z,53.45
2017-07-21T10:50:50.260Z,51.34
2017-07-21T10:51:49.953Z,50.97
2017-07-21T10:52:50.263Z,49.41
2017-07-21T10:53:50.267Z,48.73
2017-07-21T10:54:49.957Z,49.22
2017-07-21T10:55:50.273Z,47.75
2017-07-21T10:56:50.278Z,49.88
2017-07-21T10:57:49.970Z,51.02
2017-07-21T10:58:50.285Z,50.14
2017-07-21T10:59:50.283Z,48.49
2017-07-21T11:00:50.286Z,51.99
2017-07-21T11:01:50.292Z,50.26
2017-07-21T11:02:50.292Z,48.54
2017-07-21T11:03:49.987Z,49.22
2017-07-21T11:04:49.992Z,49.68
2017-07-21T11:05:50.195Z,49.95
2017-07-21T11:06:49.996Z,50.16
2017-07-21T11:07:50.313Z,50.95
2017-07-21T11:08:50.002Z,49.41
2017-07-21T11:09:50.006Z,49.71
2017-07-21T11:10:50.323Z,49.32
2017-07-21T11:11:50.325Z,48.05
2017-07-21T11:12:50.329Z,49.73
2017-07-21T11:13:50.335Z,51.29
2017-07-21T11:14:50.340Z,47.22
2017-07-21T11:15:50.341Z,47.58
2017-07-21T11:16:50.346Z,48.34
2017-07-21T11:17:50.346Z,48.85
2017-07-21T11:18:50.040Z,47.46
2017-07-21T11:19:50.353Z,47.19
2017-07-21T11:20:50.362Z,48.66
2017-07-21T11:21:50.049Z,50.41
2017-07-21T11:22:50.368Z,48.68
2017-07-21T11:23:50.060Z,45.78
2017-07-21T11:24:50.374Z,47.53
2017-07-21T11:25:50.382Z,46.66
2017-07-21T11:26:50.070Z,48.75
2017-07-21T11:27:50.440Z,48.75
2017-07-21T11:28:50.391Z,47.58
2017-07-21T11:29:50.078Z,47.02
2017-07-21T11:30:50.086Z,48.29
2017-07-21T11:31:50.129Z,49.37
2017-07-21T11:32:50.409Z,47.05
2017-07-21T11:33:50.099Z,45.48
2017-07-21T11:34:50.099Z,48.51
2017-07-21T11:35:50.156Z,48.93
2017-07-21T11:36:50.112Z,47.85
2017-07-21T11:37:50.115Z,48.05
2017-07-21T11:38:50.429Z,48.34
2017-07-21T11:39:50.433Z,46.6
2017-07-21T11:40:50.439Z,46.31
2017-07-21T11:41:50.451Z,46.6
2017-07-21T11:42:50.134Z,44.45
2017-07-21T11:43:50.141Z,47.09
2017-07-21T11:44:50.459Z,46.6
2017-07-21T11:45:50.146Z,49.04
2017-07-21T11:46:50.155Z,45.26
2017-07-21T11:47:50.469Z,45.65
2017-07-21T11:48:50.477Z,45.84
2017-07-21T11:49:50.479Z,46.92
2017-07-21T11:50:50.480Z,45.36
2017-07-21T11:51:50.488Z,44.48
2017-07-21T11:52:50.181Z,46.53
2017-07-21T11:53:50.496Z,44.01
2017-07-21T11:54:50.500Z,45.36
2017-07-21T11:55:50.557Z,47.28
2017-07-21T11:56:50.197Z,46.99
2017-07-21T11:57:50.527Z,45.82
2017-07-21T11:58:50.523Z,46.11
2017-07-21T11:59:50.525Z,46.6
2017-07-21T12:00:50.265Z,47.02
2017-07-21T12:01:50.219Z,44.67
2017-07-21T12:02:50.226Z,43.79
2017-07-21T12:03:50.539Z,47.21
2017-07-21T12:04:50.546Z,47.31
2017-07-21T12:05:50.558Z,44.69
2017-07-21T12:06:50.559Z,42.56
2017-07-21T12:07:50.247Z,43.73
2017-07-21T12:08:50.564Z,46.77
2017-07-21T12:09:50.265Z,46.2
2017-07-21T12:10:50.580Z,43.56
2017-07-21T12:11:50.606Z,44.34
2017-07-21T12:12:50.595Z,42.78
2017-07-21T12:13:50.277Z,44.03
2017-07-21T12:14:50.595Z,45.32
2017-07-21T12:15:50.599Z,45.32
2017-07-21T12:16:50.605Z,46.11
2017-07-21T12:17:50.609Z,47.45
2017-07-21T12:18:50.300Z,47.08
2017-07-21T12:19:50.622Z,45.25
2017-07-21T12:20:50.682Z,44.24
2017-07-21T12:21:50.627Z,43.95
2017-07-21T12:22:50.630Z,43.15
2017-07-21T12:23:50.637Z,44.13
2017-07-21T12:24:50.330Z,46.65
2017-07-21T12:25:50.653Z,44.2
2017-07-21T12:26:50.341Z,45.79
2017-07-21T12:27:50.664Z,44.69
2017-07-21T12:28:50.667Z,45.3
2017-07-21T12:29:50.357Z,46.77
2017-07-21T12:30:50.362Z,43.37
2017-07-21T12:31:50.368Z,43.66
2017-07-21T12:32:50.686Z,43.76
2017-07-21T12:33:50.695Z,42.5
2017-07-21T12:34:50.382Z,42.31
2017-07-21T12:35:50.701Z,43.77
2017-07-21T12:36:50.705Z,43.99
2017-07-21T12:37:50.399Z,45.29
2017-07-21T12:38:50.404Z,43.21
2017-07-21T12:39:50.719Z,42.33
2017-07-21T12:40:50.413Z,43.7
2017-07-21T12:41:50.730Z,44.38
2017-07-21T12:42:50.738Z,43.02
2017-07-21T12:43:50.431Z,42.43
2017-07-21T12:44:50.743Z,42.55
2017-07-21T12:45:50.748Z,41.66
2017-07-21T12:46:50.443Z,41.96
2017-07-21T12:47:50.450Z,40.95
2017-07-21T12:48:50.768Z,44.27
2017-07-21T12:49:50.779Z,45.25
2017-07-21T12:50:50.461Z,46.91
2017-07-21T12:51:50.779Z,44.98
2017-07-21T12:52:50.472Z,43.04
2017-07-21T12:53:50.475Z,43.02
2017-07-21T12:54:50.482Z,44.68